sensor_id;sensor_type;location;lat;lon;timestamp;P1;durP1;ratioP1;P2;durP2;ratioP2
37091;SDS011;23005;51.998;4.502;2023-03-24T00:00:03;12.20;;;5.32;;
37091;SDS011;23005;51.998;4.502;2023-03-24T00:01:25;15.93;;;5.75;;
37091;SDS011;23005;51.998;4.502;2023-03-24T00:02:47;17.85;;;5.63;;
37091;SDS011;23005;51.998;4.502;2023-03-24T00:04:08;17.08;;;5.65;;
37091;SDS011;23005;51.998;4.502;2023-03-24T00:05:29;18.30;;;6.07;;
37091;SDS011;23005;51.998;4.502;2023-03-24T00:06:50;16.25;;;5.53;;
37091;SDS011;23005;51.998;4.502;2023-03-24T00:08:11;19.30;;;6.03;;
37091;SDS011;23005;51.998;4.502;2023-03-24T00:09:31;16.65;;;6.13;;
37091;SDS011;23005;51.998;4.502;2023-03-24T00:10:52;12.15;;;5.20;;
37091;SDS011;23005;51.998;4.502;2023-03-24T00:12:13;13.55;;;5.75;;
37091;SDS011;23005;51.998;4.502;2023-03-24T00:13:34;14.00;;;5.75;;
37091;SDS011;23005;51.998;4.502;2023-03-24T00:14:55;14.35;;;5.57;;
37091;SDS011;23005;51.998;4.502;2023-03-24T00:16:16;8.60;;;5.00;;
37091;SDS011;23005;51.998;4.502;2023-03-24T00:17:37;18.58;;;5.97;;
37091;SDS011;23005;51.998;4.502;2023-03-24T00:18:59;16.00;;;5.78;;
37091;SDS011;23005;51.998;4.502;2023-03-24T00:20:20;12.98;;;4.82;;
37091;SDS011;23005;51.998;4.502;2023-03-24T00:21:42;18.63;;;7.10;;
37091;SDS011;23005;51.998;4.502;2023-03-24T00:23:03;13.60;;;5.50;;
37091;SDS011;23005;51.998;4.502;2023-03-24T00:24:24;11.57;;;5.53;;
37091;SDS011;23005;51.998;4.502;2023-03-24T00:25:44;12.87;;;5.30;;
37091;SDS011;23005;51.998;4.502;2023-03-24T00:27:05;11.32;;;4.63;;
37091;SDS011;23005;51.998;4.502;2023-03-24T00:28:25;11.23;;;4.47;;
37091;SDS011;23005;51.998;4.502;2023-03-24T00:29:46;9.63;;;4.53;;
37091;SDS011;23005;51.998;4.502;2023-03-24T00:31:07;15.43;;;5.27;;
37091;SDS011;23005;51.998;4.502;2023-03-24T00:32:28;9.45;;;4.63;;
37091;SDS011;23005;51.998;4.502;2023-03-24T00:33:48;15.07;;;5.05;;
37091;SDS011;23005;51.998;4.502;2023-03-24T00:35:11;13.50;;;4.60;;
37091;SDS011;23005;51.998;4.502;2023-03-24T00:36:33;10.30;;;4.47;;
37091;SDS011;23005;51.998;4.502;2023-03-24T00:37:54;14.85;;;4.88;;
37091;SDS011;23005;51.998;4.502;2023-03-24T00:39:15;12.57;;;5.00;;
37091;SDS011;23005;51.998;4.502;2023-03-24T00:40:36;14.80;;;5.60;;
37091;SDS011;23005;51.998;4.502;2023-03-24T00:41:57;16.20;;;4.60;;
37091;SDS011;23005;51.998;4.502;2023-03-24T00:43:17;12.93;;;5.63;;
37091;SDS011;23005;51.998;4.502;2023-03-24T00:44:38;9.98;;;4.68;;
37091;SDS011;23005;51.998;4.502;2023-03-24T00:45:59;13.68;;;4.90;;
37091;SDS011;23005;51.998;4.502;2023-03-24T00:48:41;13.73;;;4.85;;
37091;SDS011;23005;51.998;4.502;2023-03-24T00:50:02;9.82;;;4.55;;
37091;SDS011;23005;51.998;4.502;2023-03-24T00:51:25;13.55;;;5.10;;
37091;SDS011;23005;51.998;4.502;2023-03-24T00:52:46;12.07;;;5.10;;
37091;SDS011;23005;51.998;4.502;2023-03-24T00:54:07;12.63;;;5.07;;
37091;SDS011;23005;51.998;4.502;2023-03-24T00:55:29;8.55;;;4.47;;
37091;SDS011;23005;51.998;4.502;2023-03-24T00:56:50;12.80;;;4.95;;
37091;SDS011;23005;51.998;4.502;2023-03-24T00:58:10;10.75;;;4.53;;
37091;SDS011;23005;51.998;4.502;2023-03-24T00:59:31;12.68;;;4.60;;
37091;SDS011;23005;51.998;4.502;2023-03-24T01:00:52;14.50;;;5.30;;
37091;SDS011;23005;51.998;4.502;2023-03-24T01:02:15;21.10;;;6.28;;
37091;SDS011;23005;51.998;4.502;2023-03-24T01:03:36;12.73;;;5.75;;
37091;SDS011;23005;51.998;4.502;2023-03-24T01:04:57;13.90;;;5.80;;
37091;SDS011;23005;51.998;4.502;2023-03-24T01:06:19;15.60;;;5.35;;
37091;SDS011;23005;51.998;4.502;2023-03-24T01:07:40;11.57;;;5.03;;
37091;SDS011;23005;51.998;4.502;2023-03-24T01:09:02;13.20;;;5.63;;
37091;SDS011;23005;51.998;4.502;2023-03-24T01:10:23;10.52;;;4.97;;
37091;SDS011;23005;51.998;4.502;2023-03-24T01:11:44;10.32;;;4.50;;
37091;SDS011;23005;51.998;4.502;2023-03-24T01:13:05;12.73;;;5.55;;
37091;SDS011;23005;51.998;4.502;2023-03-24T01:14:25;13.80;;;5.32;;
37091;SDS011;23005;51.998;4.502;2023-03-24T01:15:46;10.88;;;5.07;;
37091;SDS011;23005;51.998;4.502;2023-03-24T01:17:06;16.70;;;4.70;;
37091;SDS011;23005;51.998;4.502;2023-03-24T01:18:27;12.50;;;5.30;;
37091;SDS011;23005;51.998;4.502;2023-03-24T01:19:48;11.50;;;5.20;;
37091;SDS011;23005;51.998;4.502;2023-03-24T01:21:09;11.80;;;5.25;;
37091;SDS011;23005;51.998;4.502;2023-03-24T01:22:30;9.32;;;4.53;;
37091;SDS011;23005;51.998;4.502;2023-03-24T01:23:52;10.68;;;4.55;;
37091;SDS011;23005;51.998;4.502;2023-03-24T01:25:13;11.60;;;4.75;;
37091;SDS011;23005;51.998;4.502;2023-03-24T01:26:34;14.05;;;4.70;;
37091;SDS011;23005;51.998;4.502;2023-03-24T01:27:55;10.05;;;5.40;;
37091;SDS011;23005;51.998;4.502;2023-03-24T01:29:16;10.13;;;4.60;;
37091;SDS011;23005;51.998;4.502;2023-03-24T01:30:37;12.07;;;5.93;;
37091;SDS011;23005;51.998;4.502;2023-03-24T01:31:58;12.20;;;5.32;;
37091;SDS011;23005;51.998;4.502;2023-03-24T01:33:18;10.57;;;4.90;;
37091;SDS011;23005;51.998;4.502;2023-03-24T01:34:39;9.30;;;4.93;;
37091;SDS011;23005;51.998;4.502;2023-03-24T01:36:00;13.17;;;5.40;;
37091;SDS011;23005;51.998;4.502;2023-03-24T01:37:20;11.77;;;4.60;;
37091;SDS011;23005;51.998;4.502;2023-03-24T01:38:41;10.55;;;4.88;;
37091;SDS011;23005;51.998;4.502;2023-03-24T01:40:03;11.23;;;4.55;;
37091;SDS011;23005;51.998;4.502;2023-03-24T01:41:25;12.43;;;4.25;;
37091;SDS011;23005;51.998;4.502;2023-03-24T01:42:46;11.88;;;3.47;;
37091;SDS011;23005;51.998;4.502;2023-03-24T01:44:23;10.35;;;4.15;;
37091;SDS011;23005;51.998;4.502;2023-03-24T01:45:57;7.95;;;3.47;;
37091;SDS011;23005;51.998;4.502;2023-03-24T01:47:21;10.10;;;3.97;;
37091;SDS011;23005;51.998;4.502;2023-03-24T01:48:43;10.00;;;3.55;;
37091;SDS011;23005;51.998;4.502;2023-03-24T01:50:07;10.38;;;3.42;;
37091;SDS011;23005;51.998;4.502;2023-03-24T01:51:28;11.82;;;3.20;;
37091;SDS011;23005;51.998;4.502;2023-03-24T01:52:50;14.38;;;3.15;;
37091;SDS011;23005;51.998;4.502;2023-03-24T01:54:12;12.75;;;3.00;;
37091;SDS011;23005;51.998;4.502;2023-03-24T01:55:37;8.95;;;2.60;;
37091;SDS011;23005;51.998;4.502;2023-03-24T01:56:58;13.18;;;2.65;;
37091;SDS011;23005;51.998;4.502;2023-03-24T01:58:22;15.10;;;3.10;;
37091;SDS011;23005;51.998;4.502;2023-03-24T01:59:45;10.90;;;2.53;;
37091;SDS011;23005;51.998;4.502;2023-03-24T02:01:07;16.52;;;3.60;;
37091;SDS011;23005;51.998;4.502;2023-03-24T02:02:28;16.55;;;3.45;;
37091;SDS011;23005;51.998;4.502;2023-03-24T02:03:48;15.32;;;3.25;;
37091;SDS011;23005;51.998;4.502;2023-03-24T02:05:09;22.55;;;3.50;;
37091;SDS011;23005;51.998;4.502;2023-03-24T02:06:31;18.35;;;3.13;;
37091;SDS011;23005;51.998;4.502;2023-03-24T02:07:55;17.77;;;2.92;;
37091;SDS011;23005;51.998;4.502;2023-03-24T02:09:21;23.50;;;3.35;;
37091;SDS011;23005;51.998;4.502;2023-03-24T02:10:43;21.33;;;3.67;;
37091;SDS011;23005;51.998;4.502;2023-03-24T02:12:04;25.23;;;4.00;;
37091;SDS011;23005;51.998;4.502;2023-03-24T02:13:24;25.13;;;3.83;;
37091;SDS011;23005;51.998;4.502;2023-03-24T02:14:45;18.80;;;3.85;;
37091;SDS011;23005;51.998;4.502;2023-03-24T02:16:10;22.60;;;3.87;;
37091;SDS011;23005;51.998;4.502;2023-03-24T02:17:45;24.27;;;4.10;;
37091;SDS011;23005;51.998;4.502;2023-03-24T02:19:32;22.42;;;3.33;;
37091;SDS011;23005;51.998;4.502;2023-03-24T02:21:14;22.48;;;3.65;;
37091;SDS011;23005;51.998;4.502;2023-03-24T02:26:56;18.65;;;3.70;;
37091;SDS011;23005;51.998;4.502;2023-03-24T02:28:24;20.83;;;3.38;;
37091;SDS011;23005;51.998;4.502;2023-03-24T02:30:03;22.95;;;3.17;;
37091;SDS011;23005;51.998;4.502;2023-03-24T02:31:36;20.55;;;3.58;;
37091;SDS011;23005;51.998;4.502;2023-03-24T02:35:06;29.17;;;4.00;;
37091;SDS011;23005;51.998;4.502;2023-03-24T02:36:56;26.85;;;4.55;;
37091;SDS011;23005;51.998;4.502;2023-03-24T02:38:36;19.23;;;3.45;;
37091;SDS011;23005;51.998;4.502;2023-03-24T02:40:09;16.80;;;3.20;;
37091;SDS011;23005;51.998;4.502;2023-03-24T02:41:53;26.98;;;4.07;;
37091;SDS011;23005;51.998;4.502;2023-03-24T02:43:16;28.02;;;3.95;;
37091;SDS011;23005;51.998;4.502;2023-03-24T02:44:41;24.40;;;3.92;;
37091;SDS011;23005;51.998;4.502;2023-03-24T02:46:08;35.03;;;4.38;;
37091;SDS011;23005;51.998;4.502;2023-03-24T02:47:33;24.88;;;4.50;;
37091;SDS011;23005;51.998;4.502;2023-03-24T02:49:04;31.00;;;4.30;;
37091;SDS011;23005;51.998;4.502;2023-03-24T02:50:28;29.58;;;4.40;;
37091;SDS011;23005;51.998;4.502;2023-03-24T02:51:52;25.10;;;3.72;;
37091;SDS011;23005;51.998;4.502;2023-03-24T02:53:18;24.55;;;4.03;;
37091;SDS011;23005;51.998;4.502;2023-03-24T02:54:43;28.33;;;4.10;;
37091;SDS011;23005;51.998;4.502;2023-03-24T02:56:08;31.42;;;4.35;;
37091;SDS011;23005;51.998;4.502;2023-03-24T02:57:31;24.63;;;3.80;;
37091;SDS011;23005;51.998;4.502;2023-03-24T02:58:54;24.70;;;3.95;;
37091;SDS011;23005;51.998;4.502;2023-03-24T03:00:18;20.10;;;3.35;;
37091;SDS011;23005;51.998;4.502;2023-03-24T03:01:43;35.80;;;4.65;;
37091;SDS011;23005;51.998;4.502;2023-03-24T03:03:07;28.98;;;4.80;;
37091;SDS011;23005;51.998;4.502;2023-03-24T03:04:31;23.73;;;4.53;;
37091;SDS011;23005;51.998;4.502;2023-03-24T03:05:53;23.63;;;3.20;;
37091;SDS011;23005;51.998;4.502;2023-03-24T03:07:16;28.00;;;4.25;;
37091;SDS011;23005;51.998;4.502;2023-03-24T03:08:38;22.27;;;3.40;;
37091;SDS011;23005;51.998;4.502;2023-03-24T03:10:02;24.70;;;3.70;;
37091;SDS011;23005;51.998;4.502;2023-03-24T03:11:26;26.02;;;4.10;;
37091;SDS011;23005;51.998;4.502;2023-03-24T03:12:47;22.58;;;3.70;;
37091;SDS011;23005;51.998;4.502;2023-03-24T03:14:12;21.60;;;3.47;;
37091;SDS011;23005;51.998;4.502;2023-03-24T03:15:35;25.33;;;3.47;;
37091;SDS011;23005;51.998;4.502;2023-03-24T03:16:59;23.88;;;3.35;;
37091;SDS011;23005;51.998;4.502;2023-03-24T03:18:21;20.65;;;3.42;;
37091;SDS011;23005;51.998;4.502;2023-03-24T03:19:47;20.42;;;3.75;;
37091;SDS011;23005;51.998;4.502;2023-03-24T03:21:10;23.60;;;3.05;;
37091;SDS011;23005;51.998;4.502;2023-03-24T03:22:33;28.92;;;4.13;;
37091;SDS011;23005;51.998;4.502;2023-03-24T03:23:59;24.88;;;3.70;;
37091;SDS011;23005;51.998;4.502;2023-03-24T03:25:23;22.52;;;4.25;;
37091;SDS011;23005;51.998;4.502;2023-03-24T03:26:46;23.08;;;3.83;;
37091;SDS011;23005;51.998;4.502;2023-03-24T03:28:08;18.65;;;3.63;;
37091;SDS011;23005;51.998;4.502;2023-03-24T03:29:31;23.92;;;3.45;;
37091;SDS011;23005;51.998;4.502;2023-03-24T03:30:55;25.55;;;4.07;;
37091;SDS011;23005;51.998;4.502;2023-03-24T03:32:18;19.85;;;3.53;;
37091;SDS011;23005;51.998;4.502;2023-03-24T03:33:42;21.48;;;3.50;;
37091;SDS011;23005;51.998;4.502;2023-03-24T03:35:05;30.33;;;3.72;;
37091;SDS011;23005;51.998;4.502;2023-03-24T03:36:30;25.63;;;4.28;;
37091;SDS011;23005;51.998;4.502;2023-03-24T03:37:53;25.85;;;3.55;;
37091;SDS011;23005;51.998;4.502;2023-03-24T03:39:18;26.02;;;4.43;;
37091;SDS011;23005;51.998;4.502;2023-03-24T03:40:44;23.85;;;4.20;;
37091;SDS011;23005;51.998;4.502;2023-03-24T03:42:10;29.08;;;4.13;;
37091;SDS011;23005;51.998;4.502;2023-03-24T03:43:31;36.60;;;4.10;;
37091;SDS011;23005;51.998;4.502;2023-03-24T03:44:52;29.08;;;4.90;;
37091;SDS011;23005;51.998;4.502;2023-03-24T03:46:13;22.08;;;3.63;;
37091;SDS011;23005;51.998;4.502;2023-03-24T03:47:34;34.53;;;4.95;;
37091;SDS011;23005;51.998;4.502;2023-03-24T03:48:55;36.90;;;4.67;;
37091;SDS011;23005;51.998;4.502;2023-03-24T03:50:16;27.85;;;4.28;;
37091;SDS011;23005;51.998;4.502;2023-03-24T03:51:36;30.10;;;4.70;;
37091;SDS011;23005;51.998;4.502;2023-03-24T03:52:57;34.13;;;4.50;;
37091;SDS011;23005;51.998;4.502;2023-03-24T03:54:17;36.45;;;4.90;;
37091;SDS011;23005;51.998;4.502;2023-03-24T03:55:38;45.35;;;6.05;;
37091;SDS011;23005;51.998;4.502;2023-03-24T03:56:59;35.22;;;4.72;;
37091;SDS011;23005;51.998;4.502;2023-03-24T03:58:20;30.77;;;4.72;;
37091;SDS011;23005;51.998;4.502;2023-03-24T03:59:41;28.83;;;4.88;;
37091;SDS011;23005;51.998;4.502;2023-03-24T04:01:05;36.33;;;4.82;;
37091;SDS011;23005;51.998;4.502;2023-03-24T04:02:28;42.17;;;4.65;;
37091;SDS011;23005;51.998;4.502;2023-03-24T04:04:13;37.70;;;6.07;;
37091;SDS011;23005;51.998;4.502;2023-03-24T04:05:45;36.90;;;5.03;;
37091;SDS011;23005;51.998;4.502;2023-03-24T04:07:08;34.17;;;4.53;;
37091;SDS011;23005;51.998;4.502;2023-03-24T04:08:37;54.83;;;6.55;;
37091;SDS011;23005;51.998;4.502;2023-03-24T04:10:06;36.92;;;5.45;;
37091;SDS011;23005;51.998;4.502;2023-03-24T04:11:31;37.53;;;5.32;;
37091;SDS011;23005;51.998;4.502;2023-03-24T04:13:02;40.90;;;6.18;;
37091;SDS011;23005;51.998;4.502;2023-03-24T04:16:20;41.97;;;5.63;;
37091;SDS011;23005;51.998;4.502;2023-03-24T04:17:57;42.03;;;5.25;;
37091;SDS011;23005;51.998;4.502;2023-03-24T04:19:31;45.63;;;6.00;;
37091;SDS011;23005;51.998;4.502;2023-03-24T04:21:01;39.63;;;5.13;;
37091;SDS011;23005;51.998;4.502;2023-03-24T04:22:29;41.50;;;5.82;;
37091;SDS011;23005;51.998;4.502;2023-03-24T04:24:02;37.17;;;5.63;;
37091;SDS011;23005;51.998;4.502;2023-03-24T04:25:31;48.13;;;5.78;;
37091;SDS011;23005;51.998;4.502;2023-03-24T04:26:57;36.28;;;5.30;;
37091;SDS011;23005;51.998;4.502;2023-03-24T04:28:25;43.38;;;5.65;;
37091;SDS011;23005;51.998;4.502;2023-03-24T04:29:53;40.13;;;6.57;;
37091;SDS011;23005;51.998;4.502;2023-03-24T04:31:23;47.55;;;6.90;;
37091;SDS011;23005;51.998;4.502;2023-03-24T04:32:46;42.08;;;5.47;;
37091;SDS011;23005;51.998;4.502;2023-03-24T04:34:10;39.00;;;5.40;;
37091;SDS011;23005;51.998;4.502;2023-03-24T04:35:36;56.50;;;6.72;;
37091;SDS011;23005;51.998;4.502;2023-03-24T04:37:00;40.85;;;6.40;;
37091;SDS011;23005;51.998;4.502;2023-03-24T04:38:25;37.28;;;5.32;;
37091;SDS011;23005;51.998;4.502;2023-03-24T04:39:46;41.60;;;6.43;;
37091;SDS011;23005;51.998;4.502;2023-03-24T04:41:09;42.40;;;6.22;;
37091;SDS011;23005;51.998;4.502;2023-03-24T04:42:30;62.45;;;7.45;;
37091;SDS011;23005;51.998;4.502;2023-03-24T04:43:53;47.85;;;6.38;;
37091;SDS011;23005;51.998;4.502;2023-03-24T04:45:16;55.35;;;6.88;;
37091;SDS011;23005;51.998;4.502;2023-03-24T04:46:37;38.25;;;5.55;;
37091;SDS011;23005;51.998;4.502;2023-03-24T04:47:58;49.90;;;5.78;;
37091;SDS011;23005;51.998;4.502;2023-03-24T04:49:20;55.78;;;7.47;;
37091;SDS011;23005;51.998;4.502;2023-03-24T04:50:41;40.85;;;5.88;;
37091;SDS011;23005;51.998;4.502;2023-03-24T04:52:12;53.47;;;6.47;;
37091;SDS011;23005;51.998;4.502;2023-03-24T04:53:36;51.75;;;6.82;;
37091;SDS011;23005;51.998;4.502;2023-03-24T04:54:57;46.65;;;5.50;;
37091;SDS011;23005;51.998;4.502;2023-03-24T04:56:24;44.42;;;7.50;;
37091;SDS011;23005;51.998;4.502;2023-03-24T04:57:48;52.65;;;6.63;;
37091;SDS011;23005;51.998;4.502;2023-03-24T04:59:08;56.70;;;8.55;;
37091;SDS011;23005;51.998;4.502;2023-03-24T05:00:30;58.20;;;6.05;;
37091;SDS011;23005;51.998;4.502;2023-03-24T05:01:51;48.90;;;7.30;;
37091;SDS011;23005;51.998;4.502;2023-03-24T05:03:12;56.85;;;6.70;;
37091;SDS011;23005;51.998;4.502;2023-03-24T05:05:53;55.53;;;6.97;;
37091;SDS011;23005;51.998;4.502;2023-03-24T05:07:14;45.75;;;6.53;;
37091;SDS011;23005;51.998;4.502;2023-03-24T05:08:34;51.80;;;6.78;;
37091;SDS011;23005;51.998;4.502;2023-03-24T05:09:54;53.30;;;6.60;;
37091;SDS011;23005;51.998;4.502;2023-03-24T05:11:15;57.60;;;7.03;;
37091;SDS011;23005;51.998;4.502;2023-03-24T05:12:36;48.22;;;6.70;;
37091;SDS011;23005;51.998;4.502;2023-03-24T05:13:56;55.83;;;8.55;;
37091;SDS011;23005;51.998;4.502;2023-03-24T05:15:17;47.60;;;7.27;;
37091;SDS011;23005;51.998;4.502;2023-03-24T05:16:39;50.83;;;7.70;;
37091;SDS011;23005;51.998;4.502;2023-03-24T05:18:00;51.92;;;7.43;;
37091;SDS011;23005;51.998;4.502;2023-03-24T05:19:21;39.83;;;7.68;;
37091;SDS011;23005;51.998;4.502;2023-03-24T05:20:42;42.35;;;7.55;;
37091;SDS011;23005;51.998;4.502;2023-03-24T05:22:03;53.15;;;6.93;;
37091;SDS011;23005;51.998;4.502;2023-03-24T05:23:23;37.95;;;6.60;;
37091;SDS011;23005;51.998;4.502;2023-03-24T05:24:44;48.08;;;7.95;;
37091;SDS011;23005;51.998;4.502;2023-03-24T05:26:05;35.92;;;6.22;;
37091;SDS011;23005;51.998;4.502;2023-03-24T05:27:26;43.55;;;8.02;;
37091;SDS011;23005;51.998;4.502;2023-03-24T05:28:46;50.90;;;7.47;;
37091;SDS011;23005;51.998;4.502;2023-03-24T05:30:07;44.53;;;6.70;;
37091;SDS011;23005;51.998;4.502;2023-03-24T05:31:29;54.60;;;7.93;;
37091;SDS011;23005;51.998;4.502;2023-03-24T05:32:51;38.90;;;6.78;;
37091;SDS011;23005;51.998;4.502;2023-03-24T05:34:12;37.47;;;6.07;;
37091;SDS011;23005;51.998;4.502;2023-03-24T05:35:33;45.20;;;5.97;;
37091;SDS011;23005;51.998;4.502;2023-03-24T05:36:54;42.08;;;6.30;;
37091;SDS011;23005;51.998;4.502;2023-03-24T05:38:14;35.53;;;6.10;;
37091;SDS011;23005;51.998;4.502;2023-03-24T05:39:34;43.17;;;5.43;;
37091;SDS011;23005;51.998;4.502;2023-03-24T05:40:56;46.30;;;7.15;;
37091;SDS011;23005;51.998;4.502;2023-03-24T05:42:16;50.40;;;6.82;;
37091;SDS011;23005;51.998;4.502;2023-03-24T05:43:37;49.25;;;7.32;;
37091;SDS011;23005;51.998;4.502;2023-03-24T05:44:58;41.37;;;8.13;;
37091;SDS011;23005;51.998;4.502;2023-03-24T05:46:18;45.55;;;6.90;;
37091;SDS011;23005;51.998;4.502;2023-03-24T05:47:38;39.57;;;8.17;;
37091;SDS011;23005;51.998;4.502;2023-03-24T05:49:00;40.95;;;7.95;;
37091;SDS011;23005;51.998;4.502;2023-03-24T05:50:21;43.08;;;7.80;;
37091;SDS011;23005;51.998;4.502;2023-03-24T05:51:42;44.50;;;8.50;;
37091;SDS011;23005;51.998;4.502;2023-03-24T05:53:02;40.50;;;8.23;;
37091;SDS011;23005;51.998;4.502;2023-03-24T05:54:26;51.33;;;10.32;;
37091;SDS011;23005;51.998;4.502;2023-03-24T05:55:46;50.33;;;7.53;;
37091;SDS011;23005;51.998;4.502;2023-03-24T05:57:09;34.88;;;5.60;;
37091;SDS011;23005;51.998;4.502;2023-03-24T05:58:31;42.03;;;7.97;;
37091;SDS011;23005;51.998;4.502;2023-03-24T05:59:51;39.40;;;7.93;;
37091;SDS011;23005;51.998;4.502;2023-03-24T06:01:12;49.58;;;8.32;;
37091;SDS011;23005;51.998;4.502;2023-03-24T06:02:32;39.30;;;7.03;;
37091;SDS011;23005;51.998;4.502;2023-03-24T06:03:53;45.63;;;8.63;;
37091;SDS011;23005;51.998;4.502;2023-03-24T06:05:15;42.08;;;8.15;;
37091;SDS011;23005;51.998;4.502;2023-03-24T06:06:36;50.25;;;7.85;;
37091;SDS011;23005;51.998;4.502;2023-03-24T06:07:57;40.40;;;6.75;;
37091;SDS011;23005;51.998;4.502;2023-03-24T06:09:18;40.90;;;6.25;;
37091;SDS011;23005;51.998;4.502;2023-03-24T06:10:41;45.17;;;7.95;;
37091;SDS011;23005;51.998;4.502;2023-03-24T06:12:02;49.85;;;8.63;;
37091;SDS011;23005;51.998;4.502;2023-03-24T06:13:23;39.95;;;8.02;;
37091;SDS011;23005;51.998;4.502;2023-03-24T06:14:44;42.00;;;6.93;;
37091;SDS011;23005;51.998;4.502;2023-03-24T06:16:06;48.10;;;7.30;;
37091;SDS011;23005;51.998;4.502;2023-03-24T06:18:48;45.03;;;6.32;;
37091;SDS011;23005;51.998;4.502;2023-03-24T06:20:09;45.53;;;8.77;;
37091;SDS011;23005;51.998;4.502;2023-03-24T06:21:32;50.53;;;7.50;;
37091;SDS011;23005;51.998;4.502;2023-03-24T06:22:54;37.75;;;6.90;;
37091;SDS011;23005;51.998;4.502;2023-03-24T06:24:15;43.05;;;8.20;;
37091;SDS011;23005;51.998;4.502;2023-03-24T06:25:36;35.30;;;7.28;;
37091;SDS011;23005;51.998;4.502;2023-03-24T06:26:56;40.47;;;7.37;;
37091;SDS011;23005;51.998;4.502;2023-03-24T06:28:17;42.25;;;7.18;;
37091;SDS011;23005;51.998;4.502;2023-03-24T06:29:38;42.43;;;7.83;;
37091;SDS011;23005;51.998;4.502;2023-03-24T06:30:58;39.92;;;7.55;;
37091;SDS011;23005;51.998;4.502;2023-03-24T06:32:19;46.20;;;7.77;;
37091;SDS011;23005;51.998;4.502;2023-03-24T06:33:40;46.78;;;8.25;;
37091;SDS011;23005;51.998;4.502;2023-03-24T06:35:01;47.85;;;7.85;;
37091;SDS011;23005;51.998;4.502;2023-03-24T06:36:22;40.58;;;8.77;;
37091;SDS011;23005;51.998;4.502;2023-03-24T06:37:44;34.72;;;6.68;;
37091;SDS011;23005;51.998;4.502;2023-03-24T06:39:04;46.35;;;7.68;;
37091;SDS011;23005;51.998;4.502;2023-03-24T06:40:25;34.75;;;6.72;;
37091;SDS011;23005;51.998;4.502;2023-03-24T06:41:46;46.45;;;7.50;;
37091;SDS011;23005;51.998;4.502;2023-03-24T06:43:06;38.13;;;7.15;;
37091;SDS011;23005;51.998;4.502;2023-03-24T06:44:27;34.05;;;6.80;;
37091;SDS011;23005;51.998;4.502;2023-03-24T06:45:47;47.65;;;7.15;;
37091;SDS011;23005;51.998;4.502;2023-03-24T06:47:08;45.17;;;6.73;;
37091;SDS011;23005;51.998;4.502;2023-03-24T06:48:28;42.20;;;7.72;;
37091;SDS011;23005;51.998;4.502;2023-03-24T06:49:49;40.60;;;6.43;;
37091;SDS011;23005;51.998;4.502;2023-03-24T06:51:09;39.78;;;5.80;;
37091;SDS011;23005;51.998;4.502;2023-03-24T06:52:30;37.58;;;6.43;;
37091;SDS011;23005;51.998;4.502;2023-03-24T06:53:52;42.63;;;6.60;;
37091;SDS011;23005;51.998;4.502;2023-03-24T06:55:13;45.72;;;6.82;;
37091;SDS011;23005;51.998;4.502;2023-03-24T06:56:33;38.92;;;6.53;;
37091;SDS011;23005;51.998;4.502;2023-03-24T06:57:54;41.70;;;6.23;;
37091;SDS011;23005;51.998;4.502;2023-03-24T06:59:15;36.73;;;6.13;;
37091;SDS011;23005;51.998;4.502;2023-03-24T07:00:35;37.28;;;6.20;;
37091;SDS011;23005;51.998;4.502;2023-03-24T07:01:56;43.53;;;6.20;;
37091;SDS011;23005;51.998;4.502;2023-03-24T07:03:16;52.33;;;5.83;;
37091;SDS011;23005;51.998;4.502;2023-03-24T07:04:37;38.17;;;5.28;;
37091;SDS011;23005;51.998;4.502;2023-03-24T07:05:58;38.53;;;5.70;;
37091;SDS011;23005;51.998;4.502;2023-03-24T07:07:20;38.38;;;6.07;;
37091;SDS011;23005;51.998;4.502;2023-03-24T07:09:02;52.75;;;6.78;;
37091;SDS011;23005;51.998;4.502;2023-03-24T07:10:22;41.60;;;6.00;;
37091;SDS011;23005;51.998;4.502;2023-03-24T07:11:43;35.77;;;5.37;;
37091;SDS011;23005;51.998;4.502;2023-03-24T07:13:03;37.30;;;5.88;;
37091;SDS011;23005;51.998;4.502;2023-03-24T07:14:24;43.20;;;5.72;;
37091;SDS011;23005;51.998;4.502;2023-03-24T07:15:45;44.95;;;6.28;;
37091;SDS011;23005;51.998;4.502;2023-03-24T07:17:07;37.05;;;5.07;;
37091;SDS011;23005;51.998;4.502;2023-03-24T07:18:27;36.40;;;5.82;;
37091;SDS011;23005;51.998;4.502;2023-03-24T07:19:48;43.00;;;5.50;;
37091;SDS011;23005;51.998;4.502;2023-03-24T07:21:08;36.60;;;5.85;;
37091;SDS011;23005;51.998;4.502;2023-03-24T07:22:29;37.03;;;5.97;;
37091;SDS011;23005;51.998;4.502;2023-03-24T07:23:50;33.17;;;5.18;;
37091;SDS011;23005;51.998;4.502;2023-03-24T07:25:12;40.60;;;6.65;;
37091;SDS011;23005;51.998;4.502;2023-03-24T07:26:32;47.83;;;5.82;;
37091;SDS011;23005;51.998;4.502;2023-03-24T07:27:53;33.80;;;5.78;;
37091;SDS011;23005;51.998;4.502;2023-03-24T07:29:14;43.63;;;5.82;;
37091;SDS011;23005;51.998;4.502;2023-03-24T07:30:35;36.35;;;5.57;;
37091;SDS011;23005;51.998;4.502;2023-03-24T07:32:00;41.22;;;5.70;;
37091;SDS011;23005;51.998;4.502;2023-03-24T07:33:20;29.55;;;5.10;;
37091;SDS011;23005;51.998;4.502;2023-03-24T07:34:41;39.77;;;6.80;;
37091;SDS011;23005;51.998;4.502;2023-03-24T07:36:02;39.78;;;6.70;;
37091;SDS011;23005;51.998;4.502;2023-03-24T07:37:22;39.03;;;6.07;;
37091;SDS011;23005;51.998;4.502;2023-03-24T07:38:43;30.65;;;5.13;;
37091;SDS011;23005;51.998;4.502;2023-03-24T07:40:04;32.90;;;6.40;;
37091;SDS011;23005;51.998;4.502;2023-03-24T07:41:27;35.08;;;5.00;;
37091;SDS011;23005;51.998;4.502;2023-03-24T07:42:48;39.00;;;5.70;;
37091;SDS011;23005;51.998;4.502;2023-03-24T07:44:08;34.75;;;5.20;;
37091;SDS011;23005;51.998;4.502;2023-03-24T07:45:30;37.13;;;5.20;;
37091;SDS011;23005;51.998;4.502;2023-03-24T07:46:50;37.58;;;4.70;;
37091;SDS011;23005;51.998;4.502;2023-03-24T07:48:11;33.70;;;4.38;;
37091;SDS011;23005;51.998;4.502;2023-03-24T07:49:31;35.73;;;5.60;;
37091;SDS011;23005;51.998;4.502;2023-03-24T07:50:52;39.03;;;4.47;;
37091;SDS011;23005;51.998;4.502;2023-03-24T07:52:13;26.73;;;4.70;;
37091;SDS011;23005;51.998;4.502;2023-03-24T07:53:34;37.50;;;5.30;;
37091;SDS011;23005;51.998;4.502;2023-03-24T07:54:54;33.47;;;4.77;;
37091;SDS011;23005;51.998;4.502;2023-03-24T07:56:15;34.17;;;5.35;;
37091;SDS011;23005;51.998;4.502;2023-03-24T07:57:37;36.83;;;5.50;;
37091;SDS011;23005;51.998;4.502;2023-03-24T07:59:00;29.25;;;5.32;;
37091;SDS011;23005;51.998;4.502;2023-03-24T08:00:21;33.33;;;5.60;;
37091;SDS011;23005;51.998;4.502;2023-03-24T08:01:42;28.90;;;4.75;;
37091;SDS011;23005;51.998;4.502;2023-03-24T08:03:02;28.73;;;4.55;;
37091;SDS011;23005;51.998;4.502;2023-03-24T08:04:25;35.08;;;5.45;;
37091;SDS011;23005;51.998;4.502;2023-03-24T08:05:46;28.83;;;4.30;;
37091;SDS011;23005;51.998;4.502;2023-03-24T08:07:07;29.15;;;4.45;;
37091;SDS011;23005;51.998;4.502;2023-03-24T08:08:28;37.67;;;5.40;;
37091;SDS011;23005;51.998;4.502;2023-03-24T08:09:48;32.05;;;4.78;;
37091;SDS011;23005;51.998;4.502;2023-03-24T08:11:09;35.28;;;5.13;;
37091;SDS011;23005;51.998;4.502;2023-03-24T08:12:30;39.00;;;4.93;;
37091;SDS011;23005;51.998;4.502;2023-03-24T08:13:52;30.50;;;4.90;;
37091;SDS011;23005;51.998;4.502;2023-03-24T08:15:12;33.70;;;4.57;;
37091;SDS011;23005;51.998;4.502;2023-03-24T08:16:33;25.60;;;4.90;;
37091;SDS011;23005;51.998;4.502;2023-03-24T08:17:53;27.30;;;5.10;;
37091;SDS011;23005;51.998;4.502;2023-03-24T08:19:14;25.90;;;4.50;;
37091;SDS011;23005;51.998;4.502;2023-03-24T08:20:35;32.78;;;5.57;;
37091;SDS011;23005;51.998;4.502;2023-03-24T08:21:56;29.40;;;4.75;;
37091;SDS011;23005;51.998;4.502;2023-03-24T08:23:16;20.58;;;3.92;;